Terminal Aerodrome Forecast
Issued by NWS

Home | Current Version | Previous Version | Text Only | Print | Product List | Glossary Off
Versions: 1 2 3 4 5 6 7 8 9 10 11 12 13 14 15 16 17 18 19

074
FTUS43 KMPX 231620 AAA
TAFAXN
TAF AMD
KAXN 231620Z 2316/2412 09011KT P6SM BKN015
     FM231900 09014KT P6SM BKN100
     FM240900 12014KT P6SM BKN120 WS020/18040KT=

USA.gov is the U.S. government's official web portal to all federal, state and local government web resources and services.